Time;durP1;ratioP1;P1;durP2;ratioP2;P2;SDS_P1;SDS_P2;PMS_P1;PMS_P2;Temp;Humidity;BMP_temperature;BMP_pressure;BME280_temperature;BME280_humidity;BME280_pressure;Samples;Min_cycle;Max_cycle;Signal;HPM_P1;HPM_P2
2022/02/22 00:01:33;;;;;;;23.02;15.18;;;;;;;1.64;100.00;97234.25;5090565;28;20053;-73
2022/02/22 00:03:58;;;;;;;21.83;15.07;;;;;;;1.58;100.00;97225.31;5090633;28;20028;-74
2022/02/22 00:06:23;;;;;;;23.38;15.35;;;;;;;1.51;100.00;97230.09;5089447;28;20545;-74
2022/02/22 00:08:49;;;;;;;23.05;15.63;;;;;;;1.49;100.00;97234.94;5090574;28;20024;-74
2022/02/22 00:11:14;;;;;;;23.42;15.73;;;;;;;1.47;100.00;97247.06;5090725;28;20495;-74
2022/02/22 00:13:39;;;;;;;24.70;16.02;;;;;;;1.42;100.00;97242.41;5090585;28;20042;-72
2022/02/22 00:16:06;;;;;;;24.27;15.70;;;;;;;1.38;100.00;97256.66;5090215;28;20043;-74
2022/02/22 00:18:32;;;;;;;25.88;16.20;;;;;;;1.44;100.00;97250.25;5090434;28;20028;-74
2022/02/22 00:20:57;;;;;;;28.52;16.20;;;;;;;1.35;100.00;97249.06;5088975;28;20054;-74
2022/02/22 00:23:23;;;;;;;26.25;16.90;;;;;;;1.25;100.00;97240.91;5090100;28;20016;-73
2022/02/22 00:25:48;;;;;;;24.50;16.73;;;;;;;1.24;100.00;97240.09;5074476;28;20036;-73
2022/02/22 00:28:14;;;;;;;28.00;17.05;;;;;;;1.25;100.00;97235.50;5083831;28;20182;-74
2022/02/22 00:30:40;;;;;;;25.77;16.05;;;;;;;1.24;100.00;97242.78;5071312;28;20581;-74
2022/02/22 00:33:05;;;;;;;26.17;17.20;;;;;;;1.21;100.00;97237.06;5076503;28;20034;-73
2022/02/22 00:35:30;;;;;;;23.52;16.38;;;;;;;1.09;100.00;97250.69;5083980;28;20433;-73
2022/02/22 00:37:56;;;;;;;26.95;16.60;;;;;;;1.04;100.00;97253.31;5082101;28;20023;-73
2022/02/22 00:40:21;;;;;;;26.20;17.23;;;;;;;1.06;100.00;97251.19;5083912;28;20020;-73
2022/02/22 00:42:47;;;;;;;26.88;16.80;;;;;;;1.02;100.00;97250.88;5081700;28;20039;-73
2022/02/22 00:45:12;;;;;;;24.15;15.27;;;;;;;1.07;100.00;97259.00;5087778;28;20008;-73
2022/02/22 00:47:38;;;;;;;25.23;16.48;;;;;;;1.11;100.00;97261.19;5087758;28;20038;-73
2022/02/22 00:50:05;;;;;;;25.10;16.42;;;;;;;1.12;100.00;97260.97;5086013;28;20012;-73
2022/02/22 00:52:31;;;;;;;25.88;16.88;;;;;;;1.14;100.00;97260.69;5082428;28;20020;-74
2022/02/22 00:54:57;;;;;;;28.92;16.42;;;;;;;1.14;100.00;97258.00;5087570;28;20719;-74
2022/02/22 00:57:22;;;;;;;23.13;16.05;;;;;;;1.06;100.00;97262.78;5085383;28;20374;-72
2022/02/22 00:59:47;;;;;;;26.35;16.48;;;;;;;1.00;100.00;97261.06;5083466;28;20111;-73
2022/02/22 01:02:13;;;;;;;24.42;15.75;;;;;;;1.05;100.00;97274.63;5081917;28;20058;-73
2022/02/22 01:04:39;;;;;;;23.73;15.23;;;;;;;0.99;100.00;97278.31;5087926;28;20453;-74
2022/02/22 01:07:04;;;;;;;26.00;16.50;;;;;;;1.07;100.00;97275.16;5085859;28;20056;-74
2022/02/22 01:09:30;;;;;;;27.15;17.85;;;;;;;0.95;100.00;97277.19;5084633;28;20106;-73
2022/02/22 01:11:55;;;;;;;26.17;17.33;;;;;;;0.78;100.00;97271.06;5088300;28;20469;-73
2022/02/22 01:14:21;;;;;;;23.27;15.77;;;;;;;0.78;100.00;97271.06;5085849;28;20027;-73
2022/02/22 01:16:47;;;;;;;26.98;15.98;;;;;;;0.78;100.00;97276.44;5087366;28;20040;-74
2022/02/22 01:19:12;;;;;;;25.00;14.75;;;;;;;0.76;100.00;97283.94;5087866;28;20020;-74
2022/02/22 01:21:38;;;;;;;23.85;14.85;;;;;;;0.72;100.00;97282.78;5087675;28;20020;-74
2022/02/22 01:24:06;;;;;;;22.77;13.82;;;;;;;0.68;100.00;97281.69;5089047;28;20442;-73
2022/02/22 01:26:33;;;;;;;21.23;13.70;;;;;;;0.64;100.00;97291.31;5089499;28;20032;-73
2022/02/22 01:28:58;;;;;;;22.27;14.10;;;;;;;0.61;100.00;97302.56;5088485;28;20084;-74
2022/02/22 01:31:25;;;;;;;23.08;13.82;;;;;;;0.72;100.00;97308.91;5083373;28;20036;-76
2022/02/22 01:33:54;;;;;;;22.63;14.70;;;;;;;0.70;100.00;97308.31;5092466;28;20068;-74
2022/02/22 01:36:21;;;;;;;25.33;15.95;;;;;;;0.59;100.00;97326.22;5091442;28;20024;-74
2022/02/22 01:38:47;;;;;;;23.25;14.50;;;;;;;0.62;100.00;97332.97;5091434;28;20487;-73
2022/02/22 01:41:12;;;;;;;23.15;15.38;;;;;;;0.65;100.00;97324.41;5092639;28;20024;-74
2022/02/22 01:43:41;;;;;;;20.63;13.88;;;;;;;0.66;100.00;97332.22;5093446;28;20027;-74
2022/02/22 01:46:07;;;;;;;21.00;13.48;;;;;;;0.67;100.00;97333.84;5093967;28;20069;-74
2022/02/22 01:48:32;;;;;;;18.35;12.30;;;;;;;0.66;100.00;97337.59;5094168;28;20027;-74
2022/02/22 01:50:58;;;;;;;20.38;12.85;;;;;;;0.72;100.00;97327.75;5095606;28;20028;-74
2022/02/22 01:53:23;;;;;;;18.63;12.02;;;;;;;0.80;100.00;97330.81;5093614;28;20024;-73
2022/02/22 01:55:51;;;;;;;18.23;11.65;;;;;;;0.83;100.00;97327.63;5093767;28;20141;-74
2022/02/22 01:58:16;;;;;;;17.25;11.23;;;;;;;0.83;100.00;97327.63;5093503;28;20047;-74
2022/02/22 02:00:43;;;;;;;17.42;10.77;;;;;;;0.73;100.00;97329.34;5092442;28;20032;-74
2022/02/22 02:03:09;;;;;;;16.65;11.18;;;;;;;0.68;100.00;97335.50;5093735;28;20394;-74
2022/02/22 02:05:34;;;;;;;16.90;12.07;;;;;;;0.70;100.00;97344.13;5093405;28;20492;-73
2022/02/22 02:08:00;;;;;;;18.55;11.82;;;;;;;0.63;100.00;97346.16;5093395;28;20024;-74
2022/02/22 02:10:27;;;;;;;23.75;14.00;;;;;;;0.58;100.00;97354.19;5093449;28;20032;-74
2022/02/22 02:12:52;;;;;;;27.80;14.13;;;;;;;0.65;100.00;97341.38;5093339;28;20431;-74
2022/02/22 02:15:17;;;;;;;21.45;13.18;;;;;;;0.61;100.00;97339.41;5092455;28;20032;-74
2022/02/22 02:17:43;;;;;;;25.20;13.27;;;;;;;0.49;100.00;97347.59;5092673;28;20024;-74
2022/02/22 02:20:11;;;;;;;24.52;13.68;;;;;;;0.50;100.00;97354.59;5092775;28;20032;-73
2022/02/22 02:22:38;;;;;;;29.35;15.57;;;;;;;0.40;100.00;97354.44;5092374;28;20028;-74
2022/02/22 02:25:04;;;;;;;25.42;14.07;;;;;;;0.39;100.00;97355.50;5092520;28;20021;-74
2022/02/22 02:27:30;;;;;;;23.88;14.02;;;;;;;0.44;100.00;97366.31;5092420;28;20024;-74
2022/02/22 02:29:59;;;;;;;28.67;17.80;;;;;;;0.32;100.00;97361.03;5092350;28;20438;-74
2022/02/22 02:32:25;;;;;;;28.65;17.55;;;;;;;0.28;100.00;97361.78;5092999;28;20073;-74
2022/02/22 02:34:51;;;;;;;29.92;18.80;;;;;;;0.08;100.00;97361.44;5093057;28;20016;-74
2022/02/22 02:37:16;;;;;;;27.90;18.02;;;;;;;-0.10;100.00;97352.56;5092868;28;20035;-74
2022/02/22 02:39:42;;;;;;;202.13;23.15;;;;;;;-0.14;100.00;97355.97;5091626;28;20057;-74
2022/02/22 02:42:07;;;;;;;50.72;20.83;;;;;;;-0.10;100.00;97359.81;5092710;28;20107;-74
2022/02/22 02:44:33;;;;;;;69.82;22.60;;;;;;;-0.09;100.00;97369.47;5093680;28;20024;-74
2022/02/22 02:46:58;;;;;;;63.38;22.17;;;;;;;-0.16;100.00;97366.16;5091925;28;20054;-74
2022/02/22 02:49:24;;;;;;;38.58;22.05;;;;;;;-0.10;100.00;97370.56;5089299;28;20372;-73
2022/02/22 02:51:49;;;;;;;43.10;21.52;;;;;;;-0.11;100.00;97368.91;5090955;28;20032;-74
2022/02/22 02:54:15;;;;;;;165.65;28.58;;;;;;;-0.24;100.00;97359.28;5089907;28;20028;-74
2022/02/22 02:56:41;;;;;;;87.53;24.20;;;;;;;-0.20;100.00;97363.13;5091625;28;20042;-74
2022/02/22 02:59:09;;;;;;;98.97;24.70;;;;;;;-0.33;100.00;97363.41;5093670;28;20145;-74
2022/02/22 03:01:36;;;;;;;106.93;26.15;;;;;;;-0.33;100.00;97360.72;5092274;28;20055;-73
2022/02/22 03:04:03;;;;;;;154.30;28.00;;;;;;;-0.28;100.00;97347.38;5092552;28;20077;-74
2022/02/22 03:06:29;;;;;;;69.88;26.67;;;;;;;-0.23;100.00;97352.03;5092231;28;20032;-74
2022/02/22 03:08:56;;;;;;;126.93;28.50;;;;;;;-0.18;100.00;97357.50;5092094;28;20052;-74
2022/02/22 03:11:22;;;;;;;242.90;34.85;;;;;;;-0.16;100.00;97363.47;5091062;28;20035;-73
2022/02/22 03:13:48;;;;;;;227.98;33.55;;;;;;;-0.06;100.00;97363.59;5090748;28;20028;-74
2022/02/22 03:16:13;;;;;;;155.27;32.63;;;;;;;0.04;100.00;97352.22;5092248;28;20020;-74
2022/02/22 03:18:39;;;;;;;237.15;35.35;;;;;;;-0.07;100.00;97348.56;5090602;28;20046;-74
2022/02/22 03:21:05;;;;;;;109.40;28.27;;;;;;;-0.04;100.00;97356.97;5091003;28;20054;-73
2022/02/22 03:23:30;;;;;;;196.48;32.25;;;;;;;-0.03;100.00;97373.88;5090977;28;20024;-75
2022/02/22 03:25:56;;;;;;;212.85;33.05;;;;;;;-0.11;100.00;97388.53;5094310;28;20032;-74
2022/02/22 03:28:22;;;;;;;144.25;33.40;;;;;;;0.00;100.00;97392.22;5094393;28;20040;-74
2022/02/22 03:30:48;;;;;;;218.63;37.47;;;;;;;0.10;100.00;97396.94;5091849;28;20024;-73
2022/02/22 03:33:14;;;;;;;278.60;39.45;;;;;;;0.22;100.00;97405.78;5091732;28;20129;-73
2022/02/22 03:35:41;;;;;;;255.43;39.05;;;;;;;0.27;100.00;97408.53;5091869;28;20055;-74
2022/02/22 03:38:07;;;;;;;209.88;36.95;;;;;;;0.45;100.00;97421.75;5091706;28;20024;-73
2022/02/22 03:40:32;;;;;;;217.45;37.70;;;;;;;0.52;100.00;97423.22;5093237;28;20027;-74
2022/02/22 03:42:58;;;;;;;235.40;37.13;;;;;;;0.61;100.00;97426.31;5091852;28;20020;-74
2022/02/22 03:45:24;;;;;;;82.47;34.53;;;;;;;0.73;100.00;97420.84;5090482;28;20069;-74
2022/02/22 03:47:50;;;;;;;176.85;33.33;;;;;;;0.83;100.00;97424.53;5090294;28;20027;-74
2022/02/22 03:50:16;;;;;;;175.70;36.13;;;;;;;0.79;100.00;97417.16;5091865;28;20492;-73
2022/02/22 03:52:42;;;;;;;511.48;54.38;;;;;;;0.81;100.00;97413.19;5091591;28;20039;-73
2022/02/22 03:55:09;;;;;;;237.25;34.05;;;;;;;0.84;100.00;97417.25;5091550;28;20040;-73
2022/02/22 03:57:35;;;;;;;90.15;30.17;;;;;;;0.85;100.00;97427.75;5090891;28;20126;-73
2022/02/22 04:00:04;;;;;;;438.70;42.47;;;;;;;0.73;100.00;97440.50;5091593;28;20032;-74
2022/02/22 04:02:30;;;;;;;270.70;31.52;;;;;;;0.65;100.00;97448.19;5091513;28;20012;-72
2022/02/22 04:04:56;;;;;;;192.55;31.92;;;;;;;0.74;100.00;97444.00;5093920;28;20047;-73
2022/02/22 04:07:21;;;;;;;90.35;25.05;;;;;;;0.73;100.00;97456.66;5094780;28;20092;-73
2022/02/22 04:09:47;;;;;;;113.13;26.33;;;;;;;0.52;100.00;97462.75;5094522;28;20035;-73
2022/02/22 04:12:12;;;;;;;99.88;29.55;;;;;;;0.64;100.00;97474.25;5094233;28;20469;-74
2022/02/22 04:14:38;;;;;;;93.80;24.98;;;;;;;0.70;100.00;97475.97;5091698;28;20024;-73
2022/02/22 04:17:04;;;;;;;111.35;25.23;;;;;;;0.68;100.00;97463.84;5091232;28;20024;-73
2022/02/22 04:19:29;;;;;;;117.07;25.08;;;;;;;0.70;100.00;97475.16;5091310;28;20027;-74
2022/02/22 04:21:55;;;;;;;122.80;23.38;;;;;;;0.67;100.00;97479.16;5091594;28;20064;-73
2022/02/22 04:24:20;;;;;;;143.90;24.98;;;;;;;0.64;100.00;97465.38;5076143;28;20541;-73
2022/02/22 04:26:47;;;;;;;110.10;23.95;;;;;;;0.65;100.00;97477.78;5089483;28;20036;-73
2022/02/22 04:29:13;;;;;;;76.93;21.33;;;;;;;0.62;100.00;97467.50;5083807;28;20386;-73
2022/02/22 04:31:38;;;;;;;76.07;20.73;;;;;;;0.67;100.00;97476.47;5070468;28;20028;-73
2022/02/22 04:34:08;;;;;;;71.10;19.88;;;;;;;0.70;100.00;97485.91;5070926;28;20082;-74
2022/02/22 04:36:34;;;;;;;321.20;29.45;;;;;;;0.66;100.00;97482.91;5069905;28;20503;-73
2022/02/22 04:39:00;;;;;;;116.68;20.58;;;;;;;0.55;100.00;97489.19;5070358;28;20481;-72
2022/02/22 04:41:26;;;;;;;326.77;30.58;;;;;;;0.67;100.00;97489.91;5075850;28;20016;-73
2022/02/22 04:43:51;;;;;;;68.35;19.70;;;;;;;0.67;100.00;97500.69;5089157;28;20042;-73
2022/02/22 04:46:17;;;;;;;107.47;21.40;;;;;;;0.64;100.00;97501.16;5089435;28;20032;-73
2022/02/22 04:48:42;;;;;;;140.63;21.33;;;;;;;0.68;100.00;97496.13;5089058;28;20031;-73
2022/02/22 04:51:07;;;;;;;138.48;22.80;;;;;;;0.70;100.00;97504.75;5090617;28;20074;-73
2022/02/22 04:53:33;;;;;;;111.30;19.38;;;;;;;0.82;100.00;97498.25;5090183;28;20024;-73
2022/02/22 04:55:58;;;;;;;104.53;18.83;;;;;;;0.72;100.00;97490.00;5090025;28;20417;-73
2022/02/22 04:58:24;;;;;;;421.52;36.42;;;;;;;0.56;100.00;97496.19;5089738;28;20052;-73
2022/02/22 05:00:50;;;;;;;299.60;27.58;;;;;;;0.74;100.00;97509.41;5090116;28;20122;-72
2022/02/22 05:03:16;;;;;;;63.25;19.15;;;;;;;0.66;100.00;97509.00;5090524;28;20016;-72
2022/02/22 05:05:41;;;;;;;101.10;20.63;;;;;;;0.62;100.00;97503.28;5090445;28;20024;-73
2022/02/22 05:08:07;;;;;;;137.63;22.10;;;;;;;0.55;100.00;97499.94;5090282;28;20404;-73
2022/02/22 05:10:32;;;;;;;56.15;19.08;;;;;;;0.68;100.00;97501.50;5093957;28;20496;-73
2022/02/22 05:12:58;;;;;;;58.75;18.75;;;;;;;0.68;100.00;97496.13;5094147;28;20071;-73
2022/02/22 05:15:23;;;;;;;78.75;18.08;;;;;;;0.67;100.00;97503.38;5093056;28;20085;-73
2022/02/22 05:17:48;;;;;;;63.85;17.05;;;;;;;0.63;100.00;97498.75;5089436;28;20035;-71
2022/02/22 05:20:14;;;;;;;69.68;15.68;;;;;;;0.69;100.00;97513.91;5072977;28;20020;-74
2022/02/22 05:22:45;;;;;;;72.40;17.15;;;;;;;0.63;100.00;97522.94;5072840;28;20024;-75
2022/02/22 05:25:12;;;;;;;48.25;16.92;;;;;;;0.64;100.00;97522.69;5073075;28;20033;-72
2022/02/22 05:27:39;;;;;;;84.93;16.92;;;;;;;0.65;100.00;97523.50;5073853;28;20501;-73
2022/02/22 05:30:05;;;;;;;141.90;20.40;;;;;;;0.64;100.00;97538.84;5074538;28;20077;-72
2022/02/22 05:32:32;;;;;;;56.55;19.45;;;;;;;0.72;100.00;97524.97;5073861;28;20032;-74
2022/02/22 05:34:58;;;;;;;44.75;16.83;;;;;;;0.64;100.00;97517.31;5074075;28;20028;-74
2022/02/22 05:37:25;;;;;;;38.75;16.17;;;;;;;0.74;100.00;97525.56;5075861;28;20021;-74
2022/02/22 05:39:50;;;;;;;56.20;18.17;;;;;;;0.79;100.00;97532.91;5078440;28;20066;-74
2022/02/22 05:42:15;;;;;;;46.78;16.27;;;;;;;0.72;100.00;97541.13;5081666;28;20024;-75
2022/02/22 05:44:41;;;;;;;35.08;16.08;;;;;;;0.74;100.00;97538.19;5092542;28;20078;-74
2022/02/22 05:47:06;;;;;;;43.58;15.90;;;;;;;0.64;100.00;97533.47;5093490;28;20465;-74
2022/02/22 05:49:34;;;;;;;31.05;16.13;;;;;;;0.78;100.00;97524.03;5087175;28;20529;-74
2022/02/22 05:52:00;;;;;;;39.67;16.58;;;;;;;0.81;100.00;97531.63;5079911;28;20035;-73
2022/02/22 05:54:25;;;;;;;30.65;15.13;;;;;;;0.76;100.00;97544.97;5072054;28;20062;-73
2022/02/22 05:56:50;;;;;;;36.10;14.07;;;;;;;0.78;100.00;97556.31;5093338;28;20020;-73
2022/02/22 05:59:16;;;;;;;38.40;13.70;;;;;;;0.76;100.00;97544.97;5093190;28;20549;-73
2022/02/22 06:01:45;;;;;;;36.55;14.10;;;;;;;0.77;100.00;97562.75;5091986;28;20043;-73
2022/02/22 06:04:11;;;;;;;32.83;13.35;;;;;;;0.86;100.00;97584.69;5093274;28;20039;-73
2022/02/22 06:06:38;;;;;;;30.38;12.90;;;;;;;0.86;100.00;97585.53;5092567;28;20024;-73
2022/02/22 06:09:05;;;;;;;29.60;14.88;;;;;;;0.81;100.00;97601.59;5071730;28;20028;-76
2022/02/22 06:11:30;;;;;;;34.70;15.60;;;;;;;0.69;100.00;97611.56;5072718;28;20017;-74
2022/02/22 06:13:56;;;;;;;27.98;15.32;;;;;;;0.75;100.00;97612.50;5071560;28;20126;-74
2022/02/22 06:16:21;;;;;;;60.83;16.65;;;;;;;0.70;100.00;97613.22;5072809;28;20496;-72
2022/02/22 06:18:46;;;;;;;57.92;20.27;;;;;;;0.62;100.00;97615.47;5072562;28;20017;-72
2022/02/22 06:21:12;;;;;;;39.95;17.80;;;;;;;0.63;100.00;97619.81;5071678;28;20032;-72
2022/02/22 06:23:37;;;;;;;34.25;15.23;;;;;;;0.61;100.00;97614.66;5072758;28;20024;-73
2022/02/22 06:26:03;;;;;;;32.30;16.73;;;;;;;0.74;100.00;97619.75;5074698;28;20095;-71
2022/02/22 06:28:28;;;;;;;34.67;16.52;;;;;;;0.85;100.00;97623.44;5073315;28;20036;-73
2022/02/22 06:30:53;;;;;;;31.20;15.93;;;;;;;0.82;100.00;97635.50;5079561;28;20034;-73
2022/02/22 06:33:19;;;;;;;36.15;16.52;;;;;;;0.94;100.00;97641.66;5092765;28;20023;-74
2022/02/22 06:35:44;;;;;;;32.50;16.23;;;;;;;1.12;100.00;97639.81;5092718;28;20039;-74
2022/02/22 06:38:09;;;;;;;33.15;14.93;;;;;;;1.31;100.00;97649.31;5092575;28;20052;-73
2022/02/22 06:40:36;;;;;;;31.73;16.92;;;;;;;1.29;100.00;97662.19;5092572;28;20074;-73
2022/02/22 06:43:02;;;;;;;32.60;15.73;;;;;;;1.26;100.00;97649.19;5092778;28;20028;-73
2022/02/22 06:45:28;;;;;;;33.63;15.55;;;;;;;1.25;100.00;97651.09;5092246;28;20748;-73
2022/02/22 06:47:54;;;;;;;34.03;16.52;;;;;;;1.15;100.00;97663.56;5092329;28;20532;-73
2022/02/22 06:50:19;;;;;;;36.70;14.70;;;;;;;0.92;100.00;97689.53;5092417;28;20020;-73
2022/02/22 06:52:45;;;;;;;33.67;16.67;;;;;;;0.91;100.00;97674.44;5093040;28;20024;-73
2022/02/22 06:55:12;;;;;;;31.42;16.23;;;;;;;0.98;100.00;97671.59;5092110;28;20034;-74
2022/02/22 06:57:39;;;;;;;33.85;16.63;;;;;;;1.07;100.00;97684.44;5092054;28;20052;-74
2022/02/22 07:00:09;;;;;;;30.92;15.77;;;;;;;1.07;100.00;97672.84;5092151;28;20024;-74
2022/02/22 07:02:39;;;;;;;27.83;15.20;;;;;;;1.20;100.00;97667.16;5092184;28;20093;-73
2022/02/22 07:05:06;;;;;;;31.48;14.75;;;;;;;1.00;100.00;97677.56;5090975;28;20400;-73
2022/02/22 07:07:32;;;;;;;33.78;17.35;;;;;;;1.24;100.00;97694.41;5090590;28;20038;-74
2022/02/22 07:09:57;;;;;;;32.70;17.15;;;;;;;1.41;100.00;97681.81;5091726;28;20028;-73
2022/02/22 07:12:23;;;;;;;35.25;16.65;;;;;;;1.37;100.00;97691.44;5092004;28;20008;-74
2022/02/22 07:14:48;;;;;;;32.40;16.40;;;;;;;1.36;100.00;97697.88;5092105;28;20115;-73
2022/02/22 07:17:14;;;;;;;29.20;15.77;;;;;;;1.39;100.00;97700.91;5091904;28;20023;-74
2022/02/22 07:19:39;;;;;;;33.97;16.90;;;;;;;1.22;100.00;97705.47;5091912;28;20477;-74
2022/02/22 07:22:04;;;;;;;32.97;16.90;;;;;;;1.41;100.00;97714.94;5093841;28;20028;-74
2022/02/22 07:24:30;;;;;;;32.08;15.50;;;;;;;1.33;100.00;97711.81;5092015;28;20584;-74
2022/02/22 07:26:55;;;;;;;31.30;16.02;;;;;;;1.37;100.00;97716.50;5091280;28;20028;-73
2022/02/22 07:29:21;;;;;;;30.80;17.30;;;;;;;1.26;100.00;97719.22;5091228;28;20477;-74
2022/02/22 07:31:47;;;;;;;33.45;15.27;;;;;;;1.41;100.00;97723.00;5090687;28;20112;-74
2022/02/22 07:34:12;;;;;;;29.65;15.50;;;;;;;1.28;100.00;97727.91;5090992;28;20028;-73
2022/02/22 07:36:39;;;;;;;27.92;15.07;;;;;;;1.29;100.00;97732.22;5091105;28;20126;-73
2022/02/22 07:39:05;;;;;;;31.08;16.35;;;;;;;1.43;100.00;97747.84;5090318;28;20012;-74
2022/02/22 07:41:31;;;;;;;29.67;15.95;;;;;;;1.52;100.00;97751.78;5093256;28;20389;-73
2022/02/22 07:43:56;;;;;;;29.83;15.95;;;;;;;1.53;100.00;97753.44;5086143;28;20009;-73
2022/02/22 07:46:22;;;;;;;34.85;18.40;;;;;;;1.56;100.00;97752.13;5071848;28;20031;-74
2022/02/22 07:48:48;;;;;;;33.17;17.27;;;;;;;1.59;100.00;97773.19;5072543;28;20025;-75
2022/02/22 07:51:16;;;;;;;35.30;18.92;;;;;;;1.74;100.00;97778.84;5075992;28;20032;-75
2022/02/22 07:53:43;;;;;;;32.97;16.30;;;;;;;1.85;100.00;97777.94;5072025;28;20024;-73
2022/02/22 07:56:09;;;;;;;31.52;15.95;;;;;;;2.02;100.00;97788.75;5071008;28;20031;-74
2022/02/22 07:58:34;;;;;;;29.70;15.05;;;;;;;1.97;100.00;97797.56;5070761;28;20044;-74
2022/02/22 08:01:00;;;;;;;33.63;17.75;;;;;;;2.13;100.00;97815.63;5071007;28;20025;-74
2022/02/22 08:03:25;;;;;;;28.73;16.10;;;;;;;2.16;100.00;97808.97;5070929;28;20131;-74
2022/02/22 08:05:51;;;;;;;32.05;17.00;;;;;;;2.23;100.00;97806.06;5071123;28;20024;-74
2022/02/22 08:08:16;;;;;;;29.60;15.85;;;;;;;2.22;100.00;97807.16;5070792;28;20020;-75
2022/02/22 08:10:41;;;;;;;31.83;16.88;;;;;;;2.43;100.00;97812.63;5070916;28;20378;-74
2022/02/22 08:13:07;;;;;;;29.27;14.63;;;;;;;2.57;100.00;97810.38;5071152;28;20031;-73
2022/02/22 08:15:32;;;;;;;28.52;16.35;;;;;;;2.52;100.00;97810.31;5073279;28;20405;-77
2022/02/22 08:17:58;;;;;;;28.38;15.55;;;;;;;2.49;100.00;97816.22;5071710;28;20162;-74
2022/02/22 08:20:23;;;;;;;26.70;14.77;;;;;;;2.46;100.00;97816.69;5070315;28;20041;-74
2022/02/22 08:22:50;;;;;;;30.85;16.58;;;;;;;2.24;100.00;97826.59;5070731;28;20059;-74
2022/02/22 08:25:16;;;;;;;26.35;14.45;;;;;;;1.99;100.00;97827.81;5070603;28;20115;-74
2022/02/22 08:27:41;;;;;;;28.65;16.00;;;;;;;2.01;100.00;97825.69;5069325;28;20032;-74
2022/02/22 08:30:07;;;;;;;33.92;17.20;;;;;;;1.89;100.00;97835.72;5070212;28;20029;-74
2022/02/22 08:32:32;;;;;;;30.00;16.00;;;;;;;1.97;100.00;97829.13;5081664;28;20070;-74
2022/02/22 08:35:04;;;;;;;27.48;15.68;;;;;;;1.96;100.00;97849.88;5089725;28;20050;-77
2022/02/22 08:37:29;;;;;;;29.10;16.35;;;;;;;2.11;100.00;97838.53;5090360;28;20032;-76
2022/02/22 08:39:55;;;;;;;29.88;15.68;;;;;;;2.31;100.00;97846.97;5090233;28;20035;-75
2022/02/22 08:42:20;;;;;;;31.27;16.73;;;;;;;2.37;100.00;97851.38;5099232;28;20024;-74
2022/02/22 08:44:46;;;;;;;30.45;16.95;;;;;;;2.46;100.00;97855.31;5094824;28;20028;-73
2022/02/22 08:47:11;;;;;;;34.00;17.02;;;;;;;2.49;100.00;97862.09;5089972;28;20496;-74
2022/02/22 08:49:36;;;;;;;29.75;16.25;;;;;;;2.45;100.00;97864.47;5088026;28;20035;-74
2022/02/22 08:52:02;;;;;;;29.48;16.90;;;;;;;2.53;100.00;97855.16;5090146;28;20016;-74
2022/02/22 08:54:28;;;;;;;31.48;16.98;;;;;;;2.63;100.00;97860.72;5089655;28;20036;-74
2022/02/22 08:56:53;;;;;;;25.77;15.90;;;;;;;2.59;100.00;97852.28;5090957;28;20032;-74
2022/02/22 08:59:19;;;;;;;27.27;14.68;;;;;;;2.63;100.00;97858.00;5093568;28;20052;-75
2022/02/22 09:01:44;;;;;;;27.40;14.70;;;;;;;2.71;100.00;97852.19;5094927;28;20365;-75
2022/02/22 09:04:09;;;;;;;29.02;15.07;;;;;;;2.78;100.00;97852.81;5094659;28;20025;-75
2022/02/22 09:06:35;;;;;;;28.70;16.15;;;;;;;2.77;100.00;97870.09;5088506;28;20032;-74
2022/02/22 09:09:00;;;;;;;28.45;15.65;;;;;;;2.83;100.00;97863.69;5090140;28;20016;-74
2022/02/22 09:11:26;;;;;;;27.75;15.15;;;;;;;2.64;100.00;97862.31;5088806;28;20024;-75
2022/02/22 09:13:51;;;;;;;24.65;14.60;;;;;;;2.90;100.00;97875.16;5087887;28;20513;-74
2022/02/22 09:16:16;;;;;;;21.13;12.80;;;;;;;2.67;100.00;97873.44;5088706;28;20051;-72
2022/02/22 09:18:42;;;;;;;26.15;13.85;;;;;;;2.52;100.00;97875.09;5085544;28;20639;-74
2022/02/22 09:21:09;;;;;;;26.25;14.02;;;;;;;2.24;100.00;97884.09;5102384;28;20451;-74
2022/02/22 09:23:34;;;;;;;26.88;13.13;;;;;;;2.35;100.00;97874.28;5110095;28;20107;-75
2022/02/22 09:26:01;;;;;;;24.23;13.20;;;;;;;2.73;100.00;97877.03;5075642;28;20217;-76
2022/02/22 09:28:26;;;;;;;26.80;14.07;;;;;;;3.13;100.00;97879.53;5102327;28;20037;-74
2022/02/22 09:30:51;;;;;;;23.88;14.32;;;;;;;3.74;100.00;97867.56;5102079;28;20093;-75
2022/02/22 09:33:17;;;;;;;25.83;12.77;;;;;;;4.96;100.00;97870.25;5096101;28;20020;-74
2022/02/22 09:35:44;;;;;;;24.05;13.90;;;;;;;5.55;100.00;97864.59;5105232;28;20028;-73
2022/02/22 09:38:09;;;;;;;21.67;12.02;;;;;;;7.30;96.00;97873.97;5093539;28;20024;-74
2022/02/22 09:40:35;;;;;;;17.08;10.13;;;;;;;7.27;88.80;97879.16;5099681;28;20046;-73
2022/02/22 09:43:01;;;;;;;20.08;10.75;;;;;;;7.12;92.39;97888.16;5100693;28;20031;-73
2022/02/22 09:45:26;;;;;;;19.23;11.35;;;;;;;7.82;89.92;97883.59;5092697;28;20020;-75
2022/02/22 09:47:55;;;;;;;18.23;11.27;;;;;;;9.27;82.00;97878.19;5090570;28;20040;-73
2022/02/22 09:50:21;;;;;;;17.23;10.70;;;;;;;11.62;72.26;97893.31;5101421;28;20058;-73
2022/02/22 09:52:46;;;;;;;14.48;9.48;;;;;;;13.32;64.08;97891.69;5099340;28;20023;-74
2022/02/22 09:55:11;;;;;;;16.27;9.88;;;;;;;14.61;57.69;97884.72;5095318;28;20089;-74
2022/02/22 09:57:37;;;;;;;14.20;9.20;;;;;;;14.40;55.47;97883.72;5087041;28;20059;-74
2022/02/22 10:00:04;;;;;;;13.65;9.23;;;;;;;13.62;58.91;97882.66;5094051;28;20074;-74
2022/02/22 10:02:38;;;;;;;13.65;8.85;;;;;;;13.95;58.33;97883.91;5099292;28;20012;-74
2022/02/22 10:05:21;;;;;;;15.93;10.43;;;;;;;14.99;55.14;97898.63;5099493;28;20035;-74
2022/02/22 10:07:57;;;;;;;17.75;9.85;;;;;;;14.68;53.64;97890.56;5104246;27;20051;-73
2022/02/22 10:10:40;;;;;;;16.30;10.23;;;;;;;12.82;57.57;97889.09;5092657;28;20024;-73
2022/02/22 10:13:08;;;;;;;15.05;10.48;;;;;;;13.51;58.12;97895.03;5085105;28;20051;-75
2022/02/22 10:15:41;;;;;;;20.20;11.48;;;;;;;14.44;55.07;97902.00;5088570;28;20032;-74
2022/02/22 10:18:07;;;;;;;18.27;9.93;;;;;;;14.08;53.82;97897.84;5082101;28;20032;-71
2022/02/22 10:20:33;;;;;;;17.45;11.55;;;;;;;15.32;52.40;97879.59;5076231;28;20024;-73
2022/02/22 10:23:00;;;;;;;17.58;11.02;;;;;;;15.78;49.75;97898.19;5100706;27;20028;-73
2022/02/22 10:25:25;;;;;;;15.20;10.50;;;;;;;13.38;54.49;97898.69;5090106;28;20036;-76
2022/02/22 10:27:59;;;;;;;15.57;9.93;;;;;;;14.04;55.02;97905.94;5094431;28;20065;-75
2022/02/22 10:30:40;;;;;;;15.05;10.68;;;;;;;12.75;59.09;97880.47;5088795;28;20533;-74
2022/02/22 10:33:28;;;;;;;19.25;11.70;;;;;;;12.02;62.57;97882.69;5097381;28;20084;-74
2022/02/22 10:35:58;;;;;;;18.65;11.35;;;;;;;12.91;59.75;97886.38;5110846;27;20055;-74
2022/02/22 10:38:26;;;;;;;15.98;11.40;;;;;;;13.32;57.90;97880.72;5093620;28;20020;-75
2022/02/22 10:41:03;;;;;;;16.88;11.82;;;;;;;12.71;60.90;97887.72;5093011;28;20020;-76
2022/02/22 10:43:33;;;;;;;18.42;11.02;;;;;;;13.43;58.58;97881.25;5089714;28;20038;-75
2022/02/22 10:46:09;;;;;;;16.48;11.32;;;;;;;13.86;57.76;97885.81;5078212;28;20019;-74
2022/02/22 10:48:37;;;;;;;17.63;12.55;;;;;;;15.35;53.14;97881.72;5105668;28;20140;-74
2022/02/22 10:51:10;;;;;;;16.38;11.35;;;;;;;15.54;52.72;97895.97;5100056;28;20035;-75
2022/02/22 10:53:47;;;;;;;15.48;12.02;;;;;;;12.98;58.23;97888.69;5091067;28;20043;-75
2022/02/22 10:56:16;;;;;;;20.00;11.38;;;;;;;13.36;58.34;97889.97;5099541;28;20480;-74
2022/02/22 10:58:45;;;;;;;19.63;12.00;;;;;;;13.92;57.03;97892.78;5100107;28;20051;-74
2022/02/22 11:01:13;;;;;;;17.98;12.48;;;;;;;14.29;55.04;97894.19;5106523;28;20023;-77
2022/02/22 11:03:43;;;;;;;18.48;12.73;;;;;;;15.11;53.93;97887.75;5089095;28;20410;-75
2022/02/22 11:06:10;;;;;;;17.65;11.20;;;;;;;15.18;53.56;97882.56;5086863;28;20373;-73
2022/02/22 11:08:39;;;;;;;19.05;12.18;;;;;;;11.33;61.60;97875.53;5110171;28;20049;-73
2022/02/22 11:11:10;;;;;;;17.25;11.73;;;;;;;12.23;61.58;97892.91;5096603;28;20032;-73
2022/02/22 11:13:36;;;;;;;18.10;12.30;;;;;;;12.73;60.40;97887.38;5079681;28;20021;-74